CCA5108 ZBHH-ZSPD
Flight info
| Callsign | CCA5108 |
|---|---|
| Flight time | N/A |
| Altitude | 37100 |
| Route | TODAM9ZD TODAM B208 PADNO/K0887S1190 B208 CGO W129 KAMDA W128 FYG B208 HFE R343 EKIMU |
| Aircraft | B77W/H-SDE1E2E3FGHIJ2J3J4J5M1RWXY/LB1D1 |
Departure
| Time | 2026-05-08 13:33 |
|---|---|
| Airport | Hohhot Baita International Airport (ZBHH) |
Arrival
| Time | N/A |
|---|---|
| Airport | Shanghai Pudong International Airport (ZSPD) |
| Time | Latitude | Longitude | Altitude | Speed | Heading |
|---|---|---|---|---|---|
| 2026-05-08 13:22 | 40.85154 | 111.81636 | 3532 ft | 0 kts | 345° |
| 2026-05-08 13:27 | 40.85163 | 111.81633 | 3532 ft | 5 kts | 345° |
| 2026-05-08 13:27 | 40.85196 | 111.81616 | 3532 ft | 9 kts | 323° |
| 2026-05-08 13:28 | 40.85214 | 111.81503 | 3531 ft | 18 kts | 259° |
| 2026-05-08 13:28 | 40.85151 | 111.81221 | 3528 ft | 30 kts | 252° |
| 2026-05-08 13:28 | 40.85112 | 111.81090 | 3529 ft | 18 kts | 227° |
| 2026-05-08 13:28 | 40.84977 | 111.81097 | 3527 ft | 23 kts | 164° |
| 2026-05-08 13:29 | 40.84844 | 111.81089 | 3529 ft | 18 kts | 246° |
| 2026-05-08 13:29 | 40.84794 | 111.80890 | 3526 ft | 27 kts | 253° |
| 2026-05-08 13:29 | 40.84748 | 111.80694 | 3522 ft | 20 kts | 253° |
| 2026-05-08 13:29 | 40.84699 | 111.80487 | 3524 ft | 7 kts | 251° |
| 2026-05-08 13:30 | 40.84688 | 111.80444 | 3522 ft | 10 kts | 251° |
| 2026-05-08 13:30 | 40.84682 | 111.80423 | 3522 ft | 0 kts | 245° |
| 2026-05-08 13:30 | 40.84680 | 111.80418 | 3522 ft | 4 kts | 245° |
| 2026-05-08 13:31 | 40.84644 | 111.80382 | 3524 ft | 9 kts | 186° |
| 2026-05-08 13:31 | 40.84616 | 111.80388 | 3520 ft | 0 kts | 166° |
| 2026-05-08 13:31 | 40.84603 | 111.80392 | 3518 ft | 6 kts | 166° |
| 2026-05-08 13:31 | 40.84534 | 111.80414 | 3523 ft | 14 kts | 162° |
| 2026-05-08 13:32 | 40.84518 | 111.80527 | 3524 ft | 17 kts | 73° |
| 2026-05-08 13:32 | 40.84618 | 111.80955 | 3526 ft | 87 kts | 72° |
| 2026-05-08 13:32 | 40.84879 | 111.82050 | 3533 ft | 160 kts | 72° |
| 2026-05-08 13:32 | 40.85264 | 111.83634 | 3823 ft | 197 kts | 74° |
| 2026-05-08 13:33 | 40.85614 | 111.85529 | 4258 ft | 216 kts | 75° |
| 2026-05-08 13:33 | 40.86050 | 111.87401 | 5205 ft | 211 kts | 72° |
| 2026-05-08 13:33 | 40.86513 | 111.89276 | 5694 ft | 224 kts | 72° |
| 2026-05-08 13:33 | 40.87021 | 111.91356 | 5925 ft | 252 kts | 72° |
| 2026-05-08 13:34 | 40.87586 | 111.93699 | 6137 ft | 283 kts | 72° |
| 2026-05-08 13:34 | 40.88200 | 111.96278 | 6624 ft | 301 kts | 72° |
| 2026-05-08 13:34 | 40.88823 | 111.98922 | 7526 ft | 303 kts | 72° |
| 2026-05-08 13:34 | 40.89453 | 112.01612 | 8328 ft | 309 kts | 72° |
| 2026-05-08 13:35 | 40.90094 | 112.04358 | 9117 ft | 316 kts | 72° |
| 2026-05-08 13:35 | 40.90711 | 112.07161 | 9926 ft | 319 kts | 78° |
| 2026-05-08 13:35 | 40.90656 | 112.10120 | 10476 ft | 332 kts | 108° |
| 2026-05-08 13:35 | 40.89557 | 112.12893 | 10722 ft | 354 kts | 133° |
| 2026-05-08 13:36 | 40.87744 | 112.15218 | 10916 ft | 376 kts | 142° |
| 2026-05-08 13:36 | 40.85725 | 112.17559 | 11349 ft | 396 kts | 142° |
| 2026-05-08 13:36 | 40.83613 | 112.19978 | 12164 ft | 406 kts | 142° |
| 2026-05-08 13:36 | 40.81498 | 112.22397 | 13227 ft | 409 kts | 141° |
| 2026-05-08 13:37 | 40.79322 | 112.24896 | 14263 ft | 414 kts | 141° |
| 2026-05-08 13:37 | 40.77157 | 112.27396 | 15203 ft | 420 kts | 141° |
| 2026-05-08 13:37 | 40.74949 | 112.29955 | 16146 ft | 426 kts | 140° |
| 2026-05-08 13:37 | 40.72704 | 112.32557 | 17072 ft | 433 kts | 140° |
| 2026-05-08 13:38 | 40.70423 | 112.35203 | 18008 ft | 439 kts | 140° |
| 2026-05-08 13:38 | 40.68107 | 112.37888 | 18842 ft | 445 kts | 140° |
| 2026-05-08 13:38 | 40.65779 | 112.40586 | 19681 ft | 450 kts | 140° |
| 2026-05-08 13:38 | 40.63409 | 112.43330 | 20505 ft | 455 kts | 140° |
| 2026-05-08 13:39 | 40.61026 | 112.46086 | 21322 ft | 460 kts | 140° |
| 2026-05-08 13:39 | 40.58594 | 112.48894 | 22028 ft | 467 kts | 140° |
| 2026-05-08 13:39 | 40.56133 | 112.51734 | 22787 ft | 472 kts | 140° |
| 2026-05-08 13:39 | 40.53660 | 112.54586 | 23594 ft | 476 kts | 140° |
| 2026-05-08 13:40 | 40.51153 | 112.57474 | 24242 ft | 480 kts | 140° |
| 2026-05-08 13:40 | 40.48632 | 112.60375 | 24880 ft | 484 kts | 140° |
| 2026-05-08 13:40 | 40.46091 | 112.63297 | 25493 ft | 489 kts | 140° |
| 2026-05-08 13:40 | 40.43550 | 112.66215 | 26081 ft | 493 kts | 140° |
| 2026-05-08 13:41 | 40.40920 | 112.69234 | 26670 ft | 497 kts | 139° |
| 2026-05-08 13:41 | 40.38584 | 112.72578 | 27068 ft | 504 kts | 124° |
| 2026-05-08 13:41 | 40.37045 | 112.76716 | 27536 ft | 508 kts | 107° |
| 2026-05-08 13:41 | 40.36449 | 112.81192 | 28130 ft | 504 kts | 92° |
| 2026-05-08 13:42 | 40.36059 | 112.85741 | 28329 ft | 508 kts | 104° |
| 2026-05-08 13:42 | 40.34620 | 112.90000 | 28617 ft | 516 kts | 124° |
| 2026-05-08 13:42 | 40.32171 | 112.93431 | 29065 ft | 517 kts | 144° |
| 2026-05-08 13:42 | 40.29030 | 112.95641 | 29560 ft | 513 kts | 164° |
| 2026-05-08 13:43 | 40.25544 | 112.96446 | 30046 ft | 506 kts | 184° |
| 2026-05-08 13:43 | 40.22128 | 112.95772 | 30511 ft | 494 kts | 203° |
| 2026-05-08 13:43 | 40.19138 | 112.93738 | 31045 ft | 480 kts | 222° |
| 2026-05-08 13:43 | 40.16900 | 112.90612 | 31612 ft | 466 kts | 240° |
| 2026-05-08 13:44 | 40.15178 | 112.87094 | 31914 ft | 461 kts | 236° |
| 2026-05-08 13:44 | 40.12880 | 112.84048 | 32050 ft | 476 kts | 224° |
| 2026-05-08 13:44 | 40.10244 | 112.81430 | 32511 ft | 477 kts | 220° |
| 2026-05-08 13:44 | 40.07526 | 112.78974 | 33248 ft | 470 kts | 219° |
| 2026-05-08 13:45 | 40.04859 | 112.76554 | 33973 ft | 464 kts | 220° |
| 2026-05-08 13:45 | 40.02243 | 112.74082 | 34374 ft | 463 kts | 221° |
| 2026-05-08 13:45 | 39.99663 | 112.71544 | 34703 ft | 464 kts | 223° |
| 2026-05-08 13:45 | 39.97126 | 112.68976 | 35039 ft | 463 kts | 223° |
| 2026-05-08 13:46 | 39.94588 | 112.66370 | 35432 ft | 462 kts | 223° |
| 2026-05-08 13:46 | 39.92074 | 112.63777 | 35812 ft | 461 kts | 224° |
| 2026-05-08 13:46 | 39.89577 | 112.61204 | 36325 ft | 456 kts | 224° |
| 2026-05-08 13:46 | 39.87087 | 112.58644 | 36734 ft | 455 kts | 224° |
| 2026-05-08 13:47 | 39.84601 | 112.56091 | 36908 ft | 459 kts | 224° |
| 2026-05-08 13:47 | 39.82077 | 112.53503 | 36970 ft | 462 kts | 224° |
| 2026-05-08 13:47 | 39.77035 | 112.48356 | 36963 ft | 457 kts | 224° |
| 2026-05-08 13:48 | 39.72087 | 112.43318 | 36965 ft | 454 kts | 224° |
| 2026-05-08 13:48 | 39.67146 | 112.38162 | 36961 ft | 448 kts | 231° |
| 2026-05-08 13:49 | 39.62439 | 112.32928 | 36995 ft | 458 kts | 220° |
| 2026-05-08 13:49 | 39.57171 | 112.28179 | 36989 ft | 460 kts | 223° |
| 2026-05-08 13:50 | 39.52084 | 112.23204 | 37064 ft | 461 kts | 217° |
| 2026-05-08 13:50 | 39.49087 | 112.21562 | 37092 ft | 478 kts | 200° |
| 2026-05-08 13:50 | 39.45746 | 112.20976 | 37097 ft | 493 kts | 186° |
| 2026-05-08 13:51 | 39.42301 | 112.21504 | 37108 ft | 503 kts | 174° |
| 2026-05-08 13:51 | 39.38868 | 112.22421 | 37100 ft | 505 kts | 174° |
| 2026-05-08 13:51 | 39.31962 | 112.24276 | 37105 ft | 507 kts | 174° |
| 2026-05-08 13:52 | 39.25047 | 112.26038 | 37099 ft | 507 kts | 175° |
| 2026-05-08 13:52 | 39.18114 | 112.27739 | 37106 ft | 506 kts | 175° |
| 2026-05-08 13:53 | 39.11190 | 112.29421 | 37117 ft | 505 kts | 176° |
| 2026-05-08 13:53 | 39.04337 | 112.31084 | 37120 ft | 504 kts | 176° |
| 2026-05-08 13:54 | 38.97462 | 112.32753 | 37125 ft | 503 kts | 176° |
| 2026-05-08 13:54 | 38.90587 | 112.34420 | 37116 ft | 502 kts | 176° |
| 2026-05-08 13:55 | 38.83721 | 112.36082 | 37128 ft | 501 kts | 176° |
| 2026-05-08 13:56 | 38.73403 | 112.38567 | 37135 ft | 508 kts | 176° |
| 2026-05-08 13:56 | 38.66426 | 112.40246 | 37124 ft | 513 kts | 176° |
| 2026-05-08 13:57 | 38.59419 | 112.41932 | 37137 ft | 516 kts | 176° |
| 2026-05-08 13:57 | 38.52355 | 112.43629 | 37131 ft | 517 kts | 176° |
| 2026-05-08 13:58 | 38.45302 | 112.45319 | 37123 ft | 515 kts | 176° |
| 2026-05-08 13:58 | 38.38254 | 112.46990 | 37115 ft | 514 kts | 177° |
| 2026-05-08 13:59 | 38.31215 | 112.48648 | 37130 ft | 514 kts | 177° |
| 2026-05-08 13:59 | 38.24178 | 112.50305 | 37100 ft | 513 kts | 177° |
| 2026-05-08 14:00 | 38.17166 | 112.51955 | 37131 ft | 512 kts | 177° |
| 2026-05-08 14:00 | 38.10170 | 112.53599 | 37151 ft | 510 kts | 177° |
| 2026-05-08 14:01 | 38.03184 | 112.55236 | 37162 ft | 510 kts | 177° |
| 2026-05-08 14:01 | 37.96216 | 112.56865 | 37160 ft | 509 kts | 178° |
| 2026-05-08 14:02 | 37.89259 | 112.58489 | 37171 ft | 509 kts | 178° |
| 2026-05-08 14:02 | 37.82293 | 112.60141 | 37176 ft | 509 kts | 177° |
| 2026-05-08 14:03 | 37.75326 | 112.61829 | 37167 ft | 509 kts | 177° |
| 2026-05-08 14:03 | 37.68447 | 112.64025 | 37170 ft | 515 kts | 173° |
| 2026-05-08 14:04 | 37.61535 | 112.66361 | 37172 ft | 514 kts | 173° |
| 2026-05-08 14:04 | 37.54600 | 112.68670 | 37146 ft | 515 kts | 173° |
| 2026-05-08 14:05 | 37.47715 | 112.70967 | 37170 ft | 515 kts | 173° |
| 2026-05-08 14:05 | 37.40784 | 112.73278 | 37191 ft | 515 kts | 173° |
| 2026-05-08 14:06 | 37.33855 | 112.75582 | 37190 ft | 515 kts | 173° |
| 2026-05-08 14:06 | 37.26926 | 112.77882 | 37195 ft | 514 kts | 174° |
| 2026-05-08 14:07 | 37.20003 | 112.80176 | 37200 ft | 514 kts | 174° |
| 2026-05-08 14:07 | 37.13086 | 112.82463 | 37209 ft | 514 kts | 174° |
| 2026-05-08 14:08 | 37.06165 | 112.84747 | 37185 ft | 514 kts | 174° |
| 2026-05-08 14:08 | 36.99252 | 112.87031 | 37204 ft | 513 kts | 174° |
| 2026-05-08 14:09 | 36.92347 | 112.89316 | 37212 ft | 512 kts | 174° |
| 2026-05-08 14:09 | 36.85470 | 112.91588 | 37223 ft | 512 kts | 174° |
| 2026-05-08 14:10 | 36.78582 | 112.93858 | 37213 ft | 511 kts | 174° |
| 2026-05-08 14:10 | 36.71694 | 112.96124 | 37214 ft | 511 kts | 174° |
| 2026-05-08 14:11 | 36.64823 | 112.98380 | 37217 ft | 511 kts | 174° |
| 2026-05-08 14:11 | 36.57961 | 113.00628 | 37226 ft | 510 kts | 174° |
| 2026-05-08 14:12 | 36.51094 | 113.02874 | 37225 ft | 510 kts | 174° |
| 2026-05-08 14:12 | 36.44261 | 113.05105 | 37225 ft | 510 kts | 174° |
| 2026-05-08 14:13 | 36.38513 | 113.06980 | 37223 ft | 510 kts | 174° |
| 2026-05-08 14:13 | 36.31643 | 113.09216 | 37223 ft | 510 kts | 174° |
| 2026-05-08 14:14 | 36.24782 | 113.11451 | 37231 ft | 510 kts | 173° |
| 2026-05-08 14:14 | 36.16900 | 113.14795 | 37242 ft | 517 kts | 168° |
| 2026-05-08 14:15 | 36.11280 | 113.17370 | 37235 ft | 517 kts | 168° |
| 2026-05-08 14:15 | 36.04533 | 113.20421 | 37256 ft | 516 kts | 168° |
| 2026-05-08 14:16 | 35.97730 | 113.23457 | 37244 ft | 516 kts | 168° |
| 2026-05-08 14:16 | 35.90990 | 113.26456 | 37250 ft | 516 kts | 168° |
| 2026-05-08 14:17 | 35.84278 | 113.29442 | 37206 ft | 516 kts | 168° |
| 2026-05-08 14:17 | 35.77537 | 113.32465 | 37249 ft | 515 kts | 168° |
| 2026-05-08 14:18 | 35.70805 | 113.35495 | 37249 ft | 514 kts | 168° |
| 2026-05-08 14:18 | 35.64088 | 113.38507 | 37242 ft | 513 kts | 168° |
| 2026-05-08 14:19 | 35.57375 | 113.41494 | 37224 ft | 512 kts | 168° |
| 2026-05-08 14:19 | 35.50669 | 113.44439 | 37228 ft | 511 kts | 168° |
| 2026-05-08 14:20 | 35.43963 | 113.47376 | 37219 ft | 512 kts | 168° |
| 2026-05-08 14:20 | 35.37439 | 113.50269 | 37221 ft | 512 kts | 168° |
| 2026-05-08 14:21 | 35.30851 | 113.53209 | 37210 ft | 512 kts | 167° |
| 2026-05-08 14:21 | 35.24158 | 113.56187 | 37226 ft | 511 kts | 167° |
| 2026-05-08 14:22 | 35.17461 | 113.59156 | 37213 ft | 512 kts | 167° |
| 2026-05-08 14:22 | 35.10763 | 113.62118 | 37202 ft | 512 kts | 167° |
| 2026-05-08 14:23 | 35.04078 | 113.65070 | 37203 ft | 511 kts | 167° |
| 2026-05-08 14:23 | 34.97428 | 113.68003 | 37211 ft | 511 kts | 167° |
| 2026-05-08 14:24 | 34.90723 | 113.70955 | 37214 ft | 512 kts | 167° |
| 2026-05-08 14:24 | 34.84002 | 113.73740 | 37218 ft | 507 kts | 172° |
| 2026-05-08 14:25 | 34.77195 | 113.75968 | 37223 ft | 506 kts | 173° |
| 2026-05-08 14:25 | 34.70397 | 113.78167 | 37245 ft | 506 kts | 172° |
| 2026-05-08 14:26 | 34.63591 | 113.80407 | 37254 ft | 507 kts | 172° |
| 2026-05-08 14:26 | 34.56786 | 113.82657 | 37237 ft | 507 kts | 172° |
| 2026-05-08 14:27 | 34.49968 | 113.84897 | 37254 ft | 507 kts | 172° |
| 2026-05-08 14:27 | 34.43182 | 113.87056 | 37227 ft | 507 kts | 173° |
| 2026-05-08 14:28 | 34.36315 | 113.89215 | 37229 ft | 507 kts | 173° |
| 2026-05-08 14:28 | 34.29535 | 113.91351 | 37204 ft | 507 kts | 173° |
| 2026-05-08 14:29 | 34.22667 | 113.93519 | 37227 ft | 507 kts | 173° |
| 2026-05-08 14:29 | 34.15880 | 113.95660 | 37233 ft | 508 kts | 173° |
| 2026-05-08 14:30 | 34.09042 | 113.97812 | 37230 ft | 508 kts | 173° |
| 2026-05-08 14:30 | 34.02190 | 113.99966 | 37231 ft | 509 kts | 173° |
| 2026-05-08 14:31 | 33.95338 | 114.02115 | 37237 ft | 509 kts | 173° |
| 2026-05-08 14:31 | 33.88490 | 114.04260 | 37233 ft | 509 kts | 173° |
| 2026-05-08 14:32 | 33.78210 | 114.07474 | 37212 ft | 508 kts | 173° |
| 2026-05-08 14:32 | 33.71372 | 114.09606 | 37228 ft | 508 kts | 173° |
| 2026-05-08 14:33 | 33.64508 | 114.11742 | 37244 ft | 509 kts | 173° |
| 2026-05-08 14:33 | 33.57650 | 114.13875 | 37241 ft | 510 kts | 173° |
| 2026-05-08 14:34 | 33.50812 | 114.15999 | 37234 ft | 509 kts | 173° |
| 2026-05-08 14:34 | 33.43900 | 114.18141 | 37241 ft | 510 kts | 173° |
| 2026-05-08 14:35 | 33.40565 | 114.19481 | 37228 ft | 521 kts | 160° |
| 2026-05-08 14:35 | 33.37514 | 114.21924 | 37240 ft | 537 kts | 143° |
| 2026-05-08 14:35 | 33.35046 | 114.25343 | 37247 ft | 550 kts | 126° |
| 2026-05-08 14:35 | 33.33392 | 114.29495 | 37253 ft | 557 kts | 112° |
| 2026-05-08 14:36 | 33.30915 | 114.38298 | 37243 ft | 560 kts | 111° |
| 2026-05-08 14:36 | 33.28212 | 114.47028 | 37242 ft | 561 kts | 114° |
| 2026-05-08 14:37 | 33.25476 | 114.55768 | 37244 ft | 563 kts | 112° |
| 2026-05-08 14:37 | 33.22778 | 114.64567 | 37244 ft | 564 kts | 112° |
| 2026-05-08 14:38 | 33.20062 | 114.73333 | 37245 ft | 563 kts | 113° |
| 2026-05-08 14:38 | 33.17301 | 114.82086 | 37249 ft | 563 kts | 113° |
| 2026-05-08 14:39 | 33.14528 | 114.90819 | 37214 ft | 562 kts | 114° |
| 2026-05-08 14:39 | 33.11775 | 114.99480 | 37245 ft | 561 kts | 113° |
| 2026-05-08 14:40 | 33.09003 | 115.08195 | 37253 ft | 562 kts | 114° |
| 2026-05-08 14:40 | 33.06223 | 115.16911 | 37260 ft | 562 kts | 114° |
| 2026-05-08 14:41 | 33.03430 | 115.25639 | 37255 ft | 563 kts | 114° |
| 2026-05-08 14:41 | 33.00636 | 115.34350 | 37246 ft | 564 kts | 114° |
| 2026-05-08 14:42 | 32.97822 | 115.43098 | 37259 ft | 565 kts | 114° |
| 2026-05-08 14:42 | 32.95047 | 115.51848 | 37259 ft | 566 kts | 113° |
| 2026-05-08 14:43 | 32.92321 | 115.60570 | 37258 ft | 566 kts | 113° |
| 2026-05-08 14:43 | 32.89404 | 115.69267 | 37253 ft | 563 kts | 120° |
| 2026-05-08 14:44 | 32.85463 | 115.77255 | 37269 ft | 557 kts | 129° |
| 2026-05-08 14:44 | 32.80643 | 115.84390 | 37272 ft | 552 kts | 136° |
| 2026-05-08 14:45 | 32.75657 | 115.91323 | 37265 ft | 552 kts | 136° |
| 2026-05-08 14:45 | 32.70702 | 115.98309 | 37254 ft | 553 kts | 135° |
| 2026-05-08 14:46 | 32.65771 | 116.05314 | 37265 ft | 553 kts | 135° |
| 2026-05-08 14:46 | 32.60824 | 116.12328 | 37262 ft | 554 kts | 135° |
| 2026-05-08 14:47 | 32.55896 | 116.19295 | 37268 ft | 557 kts | 135° |
| 2026-05-08 14:47 | 32.50963 | 116.26405 | 37266 ft | 559 kts | 135° |
| 2026-05-08 14:48 | 32.46047 | 116.33565 | 37266 ft | 561 kts | 135° |
| 2026-05-08 14:48 | 32.41115 | 116.40715 | 37264 ft | 561 kts | 135° |
| 2026-05-08 14:49 | 32.36155 | 116.47871 | 37266 ft | 561 kts | 135° |
| 2026-05-08 14:49 | 32.31211 | 116.54986 | 37266 ft | 560 kts | 135° |
| 2026-05-08 14:50 | 32.26256 | 116.62106 | 37263 ft | 560 kts | 135° |
| 2026-05-08 14:50 | 32.21298 | 116.69219 | 37274 ft | 562 kts | 135° |
| 2026-05-08 14:51 | 32.16300 | 116.76335 | 37283 ft | 563 kts | 136° |
| 2026-05-08 14:51 | 32.11215 | 116.83392 | 37282 ft | 564 kts | 136° |
| 2026-05-08 14:52 | 32.06116 | 116.90450 | 37276 ft | 565 kts | 136° |